Time;durP1;ratioP1;P1;durP2;ratioP2;P2;SDS_P1;SDS_P2;PMS_P1;PMS_P2;Temp;Humidity;BMP_temperature;BMP_pressure;BME280_temperature;BME280_humidity;BME280_pressure;Samples;Min_cycle;Max_cycle;Signal;HPM_P1;HPM_P2
2022/05/06 00:00:11;;;;;;;27.93;17.63;;;;;9.80;102030.00;;;;10421812;28;20828;-78
2022/05/06 00:05:13;;;;;;;34.53;20.10;;;;;9.80;102030.00;;;;10411051;28;20249;-79
2022/05/06 00:10:15;;;;;;;31.33;19.90;;;;;9.90;102038.00;;;;10399221;28;20236;-78
2022/05/06 00:15:17;;;;;;;34.27;20.37;;;;;10.00;102045.00;;;;10451917;28;20265;-79
2022/05/06 00:20:19;;;;;;;42.67;20.63;;;;;9.90;102046.00;;;;10410428;28;20205;-79
2022/05/06 00:25:20;;;;;;;50.40;18.67;;;;;9.80;102034.00;;;;10430042;28;20194;-79
2022/05/06 00:30:22;;;;;;;43.03;20.23;;;;;9.70;102036.00;;;;10390760;28;20194;-78
2022/05/06 00:35:25;;;;;;;48.13;20.93;;;;;9.70;102034.00;;;;10433287;28;20213;-78
2022/05/06 00:40:28;;;;;;;47.60;23.27;;;;;9.70;102049.00;;;;10428078;28;20290;-79
2022/05/06 00:45:40;;;;;;;58.50;23.07;;;;;9.60;102046.00;;;;10443965;28;20201;-78
2022/05/06 00:50:43;;;;;;;70.67;26.33;;;;;9.70;102049.00;;;;10367849;28;20195;-78
2022/05/06 00:55:47;;;;;;;68.70;24.53;;;;;9.80;102048.00;;;;10392860;28;20215;-79
2022/05/06 01:00:49;;;;;;;73.40;27.93;;;;;9.70;102053.00;;;;10451962;28;20236;-79
2022/05/06 01:05:51;;;;;;;60.53;26.57;;;;;9.70;102055.00;;;;10418507;28;20256;-79
2022/05/06 01:10:53;;;;;;;60.20;27.00;;;;;9.60;102066.00;;;;10401047;28;20255;-79
2022/05/06 01:15:56;;;;;;;56.50;27.00;;;;;9.60;102046.00;;;;10406524;28;20272;-79
2022/05/06 01:21:03;;;;;;;92.20;28.37;;;;;9.60;102052.00;;;;10413225;28;20686;-79
2022/05/06 01:26:05;;;;;;;78.93;25.73;;;;;9.70;102050.00;;;;10426670;28;20202;-80
2022/05/06 01:31:08;;;;;;;81.57;24.43;;;;;9.60;102058.00;;;;10382191;28;20198;-80
2022/05/06 01:36:11;;;;;;;78.87;24.67;;;;;9.60;102052.00;;;;10404506;28;20631;-79
2022/05/06 01:41:19;;;;;;;82.63;24.67;;;;;9.60;102048.00;;;;10451503;28;20820;-79
2022/05/06 01:46:35;;;;;;;81.07;27.07;;;;;9.60;102053.00;;;;10406605;28;20244;-79
2022/05/06 01:51:42;;;;;;;141.70;28.20;;;;;9.50;102046.00;;;;10406140;28;20212;-79
2022/05/06 01:56:49;;;;;;;93.00;25.80;;;;;9.50;102051.00;;;;10405602;28;20264;-80
2022/05/06 02:01:52;;;;;;;71.40;23.33;;;;;9.50;102055.00;;;;10426935;28;20205;-79
2022/05/06 02:07:00;;;;;;;106.83;26.83;;;;;9.40;102055.00;;;;10430165;28;20217;-79
2022/05/06 02:12:04;;;;;;;92.17;26.63;;;;;9.50;102051.00;;;;10399728;28;20204;-79
2022/05/06 02:17:42;;;;;;;70.97;27.50;;;;;9.50;102051.00;;;;10361991;28;20229;-79
2022/05/06 02:22:57;;;;;;;109.87;28.50;;;;;9.50;102055.00;;;;10422299;28;20193;-80
2022/05/06 02:28:20;;;;;;;87.43;27.87;;;;;9.60;102048.00;;;;10441688;28;20285;-79
2022/05/06 02:33:34;;;;;;;78.97;27.33;;;;;9.60;102054.00;;;;10371349;28;20206;-80
2022/05/06 02:38:41;;;;;;;78.13;28.10;;;;;9.60;102055.00;;;;10399989;28;20222;-80
2022/05/06 02:43:44;;;;;;;121.43;27.73;;;;;9.60;102065.00;;;;10397203;28;20195;-80
2022/05/06 02:48:48;;;;;;;66.97;28.07;;;;;9.50;102062.00;;;;10458132;28;20190;-79
2022/05/06 02:53:54;;;;;;;96.43;26.33;;;;;9.60;102058.00;;;;10462982;28;20202;-78
2022/05/06 02:59:04;;;;;;;71.83;25.33;;;;;9.60;102069.00;;;;10422374;28;20225;-78
2022/05/06 03:04:12;;;;;;;72.17;27.10;;;;;9.60;102054.00;;;;10434969;28;20214;-79
2022/05/06 03:09:17;;;;;;;64.00;23.53;;;;;9.50;102059.00;;;;10389565;28;20630;-79
2022/05/06 03:14:21;;;;;;;63.63;23.63;;;;;9.40;102060.00;;;;10405932;28;20249;-79
2022/05/06 03:19:43;;;;;;;50.57;21.93;;;;;9.30;102060.00;;;;10407088;28;20226;-79
2022/05/06 03:24:45;;;;;;;52.97;21.60;;;;;9.40;102065.00;;;;10388309;28;20202;-79
2022/05/06 03:29:49;;;;;;;67.50;22.77;;;;;9.40;102058.00;;;;10455017;28;20292;-78
2022/05/06 03:34:52;;;;;;;60.00;23.27;;;;;9.40;102051.00;;;;10397385;28;20191;-79
2022/05/06 03:39:57;;;;;;;61.30;22.77;;;;;9.50;102070.00;;;;10403291;28;20218;-80
2022/05/06 03:45:03;;;;;;;70.93;24.33;;;;;9.50;102072.00;;;;10421063;28;20252;-80
2022/05/06 03:55:30;;;;;;;74.53;22.57;;;;;9.60;102064.00;;;;10450129;28;20237;-79
2022/05/06 04:00:33;;;;;;;55.43;22.10;;;;;9.50;102070.00;;;;10427261;28;20202;-80
2022/05/06 04:05:41;;;;;;;48.93;21.87;;;;;9.40;102070.00;;;;10437569;28;20226;-80
2022/05/06 04:10:44;;;;;;;52.97;20.00;;;;;9.40;102072.00;;;;10411982;28;20208;-79
2022/05/06 04:15:48;;;;;;;45.30;20.57;;;;;9.40;102064.00;;;;10454460;28;20218;-79
2022/05/06 04:26:13;;;;;;;54.80;18.80;;;;;9.50;102074.00;;;;10426971;28;20182;-79
2022/05/06 04:31:24;;;;;;;67.03;21.27;;;;;9.50;102082.00;;;;10427763;28;20328;-80
2022/05/06 04:36:31;;;;;;;48.13;19.37;;;;;9.40;102080.00;;;;10433287;28;20217;-79
2022/05/06 04:41:38;;;;;;;78.03;21.57;;;;;9.50;102078.00;;;;10436656;28;20212;-80
2022/05/06 04:46:41;;;;;;;69.23;21.53;;;;;9.60;102077.00;;;;10429664;28;20261;-80
2022/05/06 04:51:45;;;;;;;74.50;21.57;;;;;9.70;102090.00;;;;10395469;28;20218;-80
2022/05/06 04:56:49;;;;;;;101.30;24.40;;;;;9.80;102086.00;;;;10410472;28;20217;-80
2022/05/06 05:01:59;;;;;;;57.40;22.87;;;;;9.90;102082.00;;;;10409063;28;20285;-80
2022/05/06 05:07:02;;;;;;;49.43;21.47;;;;;9.90;102096.00;;;;10445847;28;20218;-79
2022/05/06 05:12:07;;;;;;;67.13;21.97;;;;;10.00;102094.00;;;;10442764;28;20186;-79
2022/05/06 05:17:16;;;;;;;50.53;21.00;;;;;10.10;102101.00;;;;10417721;28;20222;-80
2022/05/06 05:22:25;;;;;;;55.40;20.83;;;;;10.10;102103.00;;;;10433455;28;20185;-79
2022/05/06 05:27:28;;;;;;;54.53;18.80;;;;;10.20;102098.00;;;;10395774;28;20198;-79
2022/05/06 05:32:32;;;;;;;49.63;19.53;;;;;10.30;102100.00;;;;10392148;28;20202;-78
2022/05/06 05:37:35;;;;;;;59.77;19.20;;;;;10.40;102107.00;;;;10383820;28;20219;-80
2022/05/06 05:42:40;;;;;;;67.93;18.20;;;;;10.50;102110.00;;;;10399636;28;20261;-79
2022/05/06 05:53:13;;;;;;;27.97;16.53;;;;;10.80;102107.00;;;;10420340;28;20206;-79
2022/05/06 05:58:17;;;;;;;33.33;15.03;;;;;10.70;102106.00;;;;10438528;28;20229;-78
2022/05/06 06:03:22;;;;;;;34.73;15.97;;;;;10.60;102106.00;;;;10373799;28;20296;-79
2022/05/06 06:08:24;;;;;;;93.40;17.50;;;;;10.90;102100.00;;;;10430189;28;20197;-79
2022/05/06 06:13:31;;;;;;;45.13;16.37;;;;;11.30;102098.00;;;;10433041;28;20225;-79
2022/05/06 06:18:35;;;;;;;39.90;16.80;;;;;11.60;102104.00;;;;10413812;28;20233;-79
2022/05/06 06:23:37;;;;;;;130.83;17.23;;;;;11.60;102101.00;;;;10394716;28;20202;-78
2022/05/06 06:28:39;;;;;;;50.67;16.33;;;;;11.50;102107.00;;;;10410998;28;20675;-80
2022/05/06 06:33:44;;;;;;;32.07;15.80;;;;;11.40;102106.00;;;;10435663;28;20851;-80
2022/05/06 06:38:52;;;;;;;30.63;17.57;;;;;11.40;102106.00;;;;10435912;28;20246;-80
2022/05/06 06:43:54;;;;;;;32.07;18.17;;;;;11.90;102114.00;;;;10431596;28;20225;-79
2022/05/06 06:49:16;;;;;;;31.90;18.07;;;;;12.00;102119.00;;;;10381978;28;20670;-79
2022/05/06 06:54:37;;;;;;;37.33;19.70;;;;;12.10;102131.00;;;;10416154;28;20205;-79
2022/05/06 06:59:40;;;;;;;36.43;18.50;;;;;12.40;102139.00;;;;10402688;28;20223;-79
2022/05/06 07:04:42;;;;;;;31.30;17.67;;;;;12.50;102147.00;;;;10419210;28;20240;-79
2022/05/06 07:15:05;;;;;;;29.47;18.50;;;;;12.70;102151.00;;;;10437235;28;20194;-79
2022/05/06 07:20:08;;;;;;;33.27;18.87;;;;;12.70;102160.00;;;;10438181;28;20218;-78
2022/05/06 07:25:09;;;;;;;26.53;17.37;;;;;12.90;102166.00;;;;10437914;28;20212;-78
2022/05/06 07:30:12;;;;;;;24.57;14.87;;;;;12.80;102168.00;;;;10422253;28;20201;-79
2022/05/06 07:35:14;;;;;;;21.73;15.03;;;;;12.50;102165.00;;;;10427477;28;20194;-79
2022/05/06 07:40:16;;;;;;;26.63;14.70;;;;;12.90;102172.00;;;;10412552;28;20287;-79
2022/05/06 07:45:18;;;;;;;26.73;15.47;;;;;13.10;102174.00;;;;10442594;28;20198;-78
2022/05/06 07:50:20;;;;;;;22.30;13.87;;;;;13.20;102183.00;;;;10443670;28;20194;-79
2022/05/06 07:55:22;;;;;;;19.43;13.67;;;;;13.00;102178.00;;;;10427279;28;20560;-79
2022/05/06 08:00:24;;;;;;;18.93;12.63;;;;;12.80;102180.00;;;;10436873;28;20217;-78
2022/05/06 08:05:28;;;;;;;18.97;12.30;;;;;12.90;102171.00;;;;10400564;28;20222;-79
2022/05/06 08:10:30;;;;;;;17.57;12.47;;;;;13.60;102171.00;;;;10444090;28;20202;-79
2022/05/06 08:15:33;;;;;;;18.10;12.17;;;;;14.00;102175.00;;;;10412194;28;20209;-78
2022/05/06 08:20:35;;;;;;;22.00;14.17;;;;;14.40;102176.00;;;;10410478;28;20226;-79
2022/05/06 08:25:38;;;;;;;18.67;13.70;;;;;14.80;102174.00;;;;10442048;28;20202;-80
2022/05/06 08:30:41;;;;;;;22.40;15.57;;;;;15.20;102184.00;;;;10422374;28;20320;-79
2022/05/06 08:35:44;;;;;;;19.67;14.33;;;;;15.30;102185.00;;;;10444797;28;20186;-79
2022/05/06 08:40:48;;;;;;;20.93;14.30;;;;;15.50;102186.00;;;;10427273;28;20210;-79
2022/05/06 08:51:12;;;;;;;18.47;15.37;;;;;16.20;102180.00;;;;10473964;28;20209;-79
2022/05/06 08:56:14;;;;;;;21.73;15.37;;;;;16.70;102178.00;;;;10458318;28;20253;-79
2022/05/06 09:01:21;;;;;;;21.43;15.53;;;;;17.30;102171.00;;;;10401768;28;20206;-78
2022/05/06 09:06:29;;;;;;;17.80;15.73;;;;;18.20;102171.00;;;;10404554;28;20632;-79
2022/05/06 09:16:51;;;;;;;19.63;16.63;;;;;19.40;102165.00;;;;10424896;28;20214;-79
2022/05/06 09:22:11;;;;;;;16.73;14.82;;;;;20.40;102161.00;;;;10457093;28;20202;-79
2022/05/06 09:27:18;;;;;;;19.55;15.13;;;;;21.10;102170.00;;;;10438866;28;20198;-79
2022/05/06 09:32:28;;;;;;;18.95;16.95;;;;;21.60;102168.00;;;;10433764;28;20236;-80
2022/05/06 09:37:38;;;;;;;19.17;15.55;;;;;22.20;102170.00;;;;10405476;28;20217;-79
2022/05/06 09:42:59;;;;;;;15.70;14.10;;;;;22.40;102160.00;;;;10406387;28;20252;-79
2022/05/06 09:48:03;;;;;;;15.50;13.90;;;;;22.30;102162.00;;;;10422254;28;20201;-79
2022/05/06 09:53:08;;;;;;;14.82;13.38;;;;;22.30;102165.00;;;;10422243;28;20202;-80
2022/05/06 09:58:11;;;;;;;15.35;13.82;;;;;22.00;102157.00;;;;10456035;28;20249;-79
2022/05/06 10:03:13;;;;;;;15.05;13.57;;;;;22.30;102160.00;;;;10438543;28;20309;-79
2022/05/06 10:08:17;;;;;;;15.30;13.77;;;;;22.90;102157.00;;;;10412277;28;20743;-79
2022/05/06 10:13:22;;;;;;;14.85;13.45;;;;;23.40;102154.00;;;;10412943;28;20294;-79
2022/05/06 10:18:40;;;;;;;14.80;13.40;;;;;23.60;102153.00;;;;10436326;28;20245;-80
2022/05/06 10:23:56;;;;;;;14.20;12.90;;;;;23.50;102147.00;;;;10421202;28;20194;-79
2022/05/06 10:34:18;;;;;;;13.90;12.45;;;;;24.30;102133.00;;;;10449070;28;20202;-79
2022/05/06 10:39:20;;;;;;;12.90;11.70;;;;;25.20;102129.00;;;;10436207;28;20272;-80
2022/05/06 10:44:33;;;;;;;13.15;12.05;;;;;25.10;102128.00;;;;10398049;28;20194;-79
2022/05/06 10:49:35;;;;;;;12.18;10.25;;;;;24.90;102117.00;;;;10417307;28;20354;-79
2022/05/06 10:54:37;;;;;;;10.73;9.73;;;;;25.10;102113.00;;;;10418835;28;20248;-78
2022/05/06 11:00:01;;;;;;;12.07;10.85;;;;;25.50;102109.00;;;;10407246;28;20835;-78
2022/05/06 11:05:08;;;;;;;10.40;9.50;;;;;25.80;102101.00;;;;10412621;28;20266;-80
2022/05/06 11:10:22;;;;;;;9.60;8.50;;;;;26.00;102093.00;;;;10411851;28;20194;-80
2022/05/06 11:15:27;;;;;;;8.88;8.10;;;;;26.20;102088.00;;;;10436818;28;20256;-80
2022/05/06 11:20:37;;;;;;;8.82;8.02;;;;;26.50;102090.00;;;;10415275;28;20222;-80
2022/05/06 11:25:50;;;;;;;6.40;5.80;;;;;26.80;102077.00;;;;10400839;28;20210;-79
2022/05/06 11:30:53;;;;;;;7.68;6.97;;;;;26.70;102079.00;;;;10442586;28;20210;-79
2022/05/06 11:36:03;;;;;;;7.65;6.95;;;;;27.00;102063.00;;;;10443062;28;20206;-80
2022/05/06 11:41:14;;;;;;;10.10;6.45;;;;;27.20;102065.00;;;;10435426;28;20222;-79
2022/05/06 11:51:41;;;;;;;8.80;8.00;;;;;27.70;102058.00;;;;10401355;28;20685;-79
2022/05/06 11:56:43;;;;;;;7.95;7.25;;;;;27.80;102052.00;;;;10419977;28;20214;-80
2022/05/06 12:01:45;;;;;;;7.65;6.95;;;;;27.80;102049.00;;;;10435441;28;20207;-79
2022/05/06 12:06:51;;;;;;;6.93;6.22;;;;;27.60;102054.00;;;;10418461;28;20253;-79
2022/05/06 12:12:05;;;;;;;7.38;6.55;;;;;27.10;102038.00;;;;10435156;28;20202;-79
2022/05/06 12:17:13;;;;;;;8.48;6.50;;;;;27.20;102036.00;;;;10450375;28;20264;-79
2022/05/06 12:22:22;;;;;;;8.15;7.35;;;;;27.50;102034.00;;;;10403928;28;20323;-79
2022/05/06 12:27:33;;;;;;;9.27;7.22;;;;;27.80;102030.00;;;;10419686;28;20199;-80
2022/05/06 12:32:40;;;;;;;12.52;7.25;;;;;27.80;102026.00;;;;10428065;28;20263;-80
2022/05/06 12:38:00;;;;;;;7.47;5.78;;;;;28.20;102021.00;;;;10441870;28;20218;-80
2022/05/06 12:43:11;;;;;;;8.05;5.95;;;;;27.40;102024.00;;;;10417248;28;20198;-79
2022/05/06 12:53:34;;;;;;;10.07;6.13;;;;;27.80;102015.00;;;;10458062;28;20240;-80
2022/05/06 12:58:36;;;;;;;5.97;5.38;;;;;28.20;102014.00;;;;10439713;28;20759;-80
2022/05/06 13:03:38;;;;;;;6.20;4.80;;;;;28.00;102018.00;;;;10426320;28;20309;-79
2022/05/06 13:08:40;;;;;;;5.70;4.55;;;;;28.50;102006.00;;;;10418532;28;20191;-80
2022/05/06 13:13:42;;;;;;;6.35;5.28;;;;;27.80;101995.00;;;;10423259;28;20255;-79
2022/05/06 13:18:44;;;;;;;5.07;4.57;;;;;28.80;102001.00;;;;10420766;28;20224;-79
2022/05/06 13:23:46;;;;;;;7.50;4.88;;;;;30.80;101994.00;;;;10420860;28;20186;-79
2022/05/06 13:28:48;;;;;;;6.65;5.10;;;;;29.80;101986.00;;;;10439104;28;20210;-79
2022/05/06 13:33:50;;;;;;;5.68;4.97;;;;;30.80;101976.00;;;;10410986;28;20191;-78
2022/05/06 13:38:52;;;;;;;6.15;5.30;;;;;32.30;101980.00;;;;10373373;28;20230;-79
2022/05/06 13:43:54;;;;;;;7.05;5.43;;;;;31.10;102004.00;;;;10411615;28;20667;-79
2022/05/06 13:48:56;;;;;;;6.15;4.65;;;;;32.40;101973.00;;;;10413464;28;20248;-79
2022/05/06 13:53:58;;;;;;;4.75;4.25;;;;;33.60;101965.00;;;;10436848;28;20217;-79
2022/05/06 13:59:11;;;;;;;4.05;3.40;;;;;34.60;101958.00;;;;10437610;28;20222;-79
2022/05/06 14:04:13;;;;;;;5.95;3.88;;;;;34.00;101960.00;;;;10414014;28;20232;-79
2022/05/06 14:09:15;;;;;;;3.88;3.42;;;;;34.60;101956.00;;;;10436468;28;20194;-80
2022/05/06 14:14:17;;;;;;;6.95;4.28;;;;;34.80;101961.00;;;;10405021;28;20285;-79
2022/05/06 14:19:19;;;;;;;6.68;4.38;;;;;31.40;101950.00;;;;10437362;28;20250;-79
2022/05/06 14:24:21;;;;;;;3.80;3.05;;;;;34.70;101947.00;;;;10404489;28;20202;-79
2022/05/06 14:29:23;;;;;;;6.85;4.25;;;;;35.50;101939.00;;;;10434149;28;20248;-79
2022/05/06 14:34:24;;;;;;;5.38;3.92;;;;;36.10;101939.00;;;;10395021;28;20236;-79
2022/05/06 14:39:27;;;;;;;9.23;5.90;;;;;35.90;101943.00;;;;10413601;28;20379;-79
2022/05/06 14:44:29;;;;;;;8.05;5.60;;;;;35.40;101928.00;;;;10434575;28;20202;-78
2022/05/06 14:49:30;;;;;;;9.98;7.32;;;;;35.60;101921.00;;;;10473704;28;20224;-78
2022/05/06 14:54:32;;;;;;;8.05;6.75;;;;;34.80;101922.00;;;;10437874;28;20190;-78
2022/05/06 14:59:35;;;;;;;8.70;6.88;;;;;35.20;101912.00;;;;10403621;28;20221;-79
2022/05/06 15:04:40;;;;;;;8.50;6.82;;;;;32.40;101923.00;;;;10453051;28;20210;-79
2022/05/06 15:09:42;;;;;;;9.43;6.45;;;;;28.80;101916.00;;;;10390019;28;20283;-78
2022/05/06 15:14:44;;;;;;;7.65;6.28;;;;;29.80;101913.00;;;;10399882;28;20194;-79
2022/05/06 15:19:47;;;;;;;10.40;6.90;;;;;32.10;101887.00;;;;10451907;28;20221;-79
2022/05/06 15:24:49;;;;;;;10.77;7.93;;;;;29.50;101894.00;;;;10453317;28;20198;-79
2022/05/06 15:29:52;;;;;;;11.38;7.68;;;;;27.10;101906.00;;;;10395669;28;20193;-78
2022/05/06 15:34:55;;;;;;;12.45;8.13;;;;;28.90;101888.00;;;;10420198;28;20252;-78
2022/05/06 15:39:57;;;;;;;13.80;9.20;;;;;32.40;101889.00;;;;10435539;28;20214;-79
2022/05/06 15:44:59;;;;;;;10.80;7.68;;;;;32.10;101901.00;;;;10415680;28;20899;-78
2022/05/06 15:50:04;;;;;;;15.00;9.32;;;;;28.80;101895.00;;;;10410009;28;20285;-80
2022/05/06 15:55:08;;;;;;;13.43;7.75;;;;;27.50;101889.00;;;;10397074;28;20303;-79
2022/05/06 16:00:11;;;;;;;12.52;8.77;;;;;26.40;101885.00;;;;10444503;28;20268;-79
2022/05/06 16:05:13;;;;;;;13.23;8.85;;;;;25.00;101881.00;;;;10441400;28;20305;-79
2022/05/06 16:10:15;;;;;;;10.88;7.28;;;;;24.30;101888.00;;;;10406631;28;20198;-78
2022/05/06 16:15:17;;;;;;;15.43;8.70;;;;;23.80;101886.00;;;;10409092;28;20202;-79
2022/05/06 16:20:25;;;;;;;15.05;9.35;;;;;23.30;101881.00;;;;10370119;28;20241;-79
2022/05/06 16:25:28;;;;;;;12.15;7.32;;;;;23.00;101879.00;;;;10418176;28;20195;-79
2022/05/06 16:30:33;;;;;;;10.98;7.45;;;;;22.90;101875.00;;;;10390155;28;20230;-79
2022/05/06 16:40:56;;;;;;;12.98;7.88;;;;;22.70;101858.00;;;;10383966;28;20306;-79
2022/05/06 16:45:58;;;;;;;16.30;7.68;;;;;22.50;101864.00;;;;10404070;28;20206;-79
2022/05/06 16:51:00;;;;;;;9.20;7.55;;;;;22.50;101860.00;;;;10418180;28;20206;-79
2022/05/06 16:56:02;;;;;;;11.60;8.52;;;;;22.30;101858.00;;;;10383401;28;20218;-79
2022/05/06 17:01:04;;;;;;;11.70;8.20;;;;;22.00;101852.00;;;;10439454;28;20268;-78
2022/05/06 17:06:06;;;;;;;11.82;8.00;;;;;21.90;101853.00;;;;10422659;28;20264;-79
2022/05/06 17:11:11;;;;;;;10.52;8.48;;;;;21.60;101848.00;;;;10425379;28;20201;-79
2022/05/06 17:16:12;;;;;;;10.55;7.65;;;;;21.70;101855.00;;;;10439066;28;20225;-78
2022/05/06 17:21:14;;;;;;;9.02;8.13;;;;;21.70;101855.00;;;;10392091;28;20214;-78
2022/05/06 17:26:16;;;;;;;10.70;7.65;;;;;21.70;101847.00;;;;10429210;28;20194;-79
2022/05/06 17:31:21;;;;;;;12.35;8.38;;;;;21.70;101846.00;;;;10435992;28;20206;-80
2022/05/06 17:36:26;;;;;;;14.98;9.18;;;;;21.60;101852.00;;;;10451576;28;20198;-78
2022/05/06 17:41:29;;;;;;;12.02;8.85;;;;;21.50;101848.00;;;;10417856;28;20300;-78
2022/05/06 17:46:31;;;;;;;9.95;8.57;;;;;21.40;101841.00;;;;10438305;28;20743;-79
2022/05/06 17:51:35;;;;;;;12.02;9.30;;;;;21.30;101844.00;;;;10404478;28;20261;-78
2022/05/06 17:56:37;;;;;;;10.38;7.88;;;;;21.20;101845.00;;;;10434676;28;20202;-79
2022/05/06 18:01:42;;;;;;;10.77;8.95;;;;;20.90;101839.00;;;;10437319;28;20230;-79
2022/05/06 18:06:44;;;;;;;10.43;8.75;;;;;20.70;101837.00;;;;10437846;28;20309;-79
2022/05/06 18:11:46;;;;;;;11.40;8.77;;;;;20.40;101837.00;;;;10438463;28;20270;-79
2022/05/06 18:16:48;;;;;;;11.98;9.35;;;;;20.10;101845.00;;;;10405430;28;20197;-79
2022/05/06 18:21:50;;;;;;;13.18;8.15;;;;;19.80;101844.00;;;;10422238;28;20225;-79
2022/05/06 18:26:53;;;;;;;12.45;7.88;;;;;19.60;101843.00;;;;10419951;28;20442;-79
2022/05/06 18:37:15;;;;;;;10.23;7.50;;;;;19.00;101838.00;;;;10437652;28;20668;-79
2022/05/06 18:42:18;;;;;;;11.23;8.18;;;;;18.70;101841.00;;;;10426216;28;20583;-79
2022/05/06 18:47:20;;;;;;;9.40;7.35;;;;;18.50;101842.00;;;;10421126;28;20225;-79
2022/05/06 18:52:22;;;;;;;8.07;6.10;;;;;18.30;101844.00;;;;10399328;28;20259;-79
2022/05/06 18:57:25;;;;;;;8.43;6.25;;;;;18.00;101839.00;;;;10437421;28;20213;-79
2022/05/06 19:02:28;;;;;;;8.98;5.72;;;;;17.80;101855.00;;;;10405618;28;20608;-79
2022/05/06 19:07:30;;;;;;;11.32;5.90;;;;;17.50;101840.00;;;;10409257;28;20202;-79
2022/05/06 19:12:32;;;;;;;10.23;6.72;;;;;17.30;101842.00;;;;10414420;28;20205;-78
2022/05/06 19:17:34;;;;;;;9.63;7.35;;;;;17.20;101850.00;;;;10421210;28;20711;-79
2022/05/06 19:28:34;;;;;;;9.38;7.05;;;;;16.70;101853.00;;;;10411626;28;20199;-79
2022/05/06 19:33:54;;;;;;;10.70;8.37;;;;;16.50;101865.00;;;;10428352;28;20198;-79
2022/05/06 19:39:15;;;;;;;10.93;8.23;;;;;16.30;101865.00;;;;10445249;28;20218;-78
2022/05/06 19:44:23;;;;;;;16.15;9.90;;;;;16.20;101854.00;;;;10443903;28;20191;-79
2022/05/06 19:49:26;;;;;;;14.20;8.63;;;;;16.20;101864.00;;;;10404824;28;20698;-79
2022/05/06 19:54:29;;;;;;;15.90;10.27;;;;;16.10;101859.00;;;;10420342;28;20190;-78
2022/05/06 19:59:31;;;;;;;16.10;10.27;;;;;16.00;101852.00;;;;10406375;28;20222;-78
2022/05/06 20:04:33;;;;;;;11.23;7.03;;;;;15.90;101858.00;;;;10390831;28;20803;-79
2022/05/06 20:09:34;;;;;;;9.07;7.57;;;;;15.70;101858.00;;;;10422441;28;20198;-78
2022/05/06 20:14:36;;;;;;;10.10;7.90;;;;;15.50;101856.00;;;;10397799;28;20209;-79
2022/05/06 20:19:38;;;;;;;12.57;8.83;;;;;15.30;101856.00;;;;10401149;28;20222;-79
2022/05/06 20:24:41;;;;;;;15.00;10.77;;;;;15.20;101870.00;;;;10392175;28;20206;-78
2022/05/06 20:29:43;;;;;;;14.03;12.17;;;;;15.10;101870.00;;;;10427350;28;20263;-79
2022/05/06 20:34:45;;;;;;;16.63;12.57;;;;;14.90;101870.00;;;;10430586;28;20222;-79
2022/05/06 20:39:47;;;;;;;24.83;13.83;;;;;14.90;101865.00;;;;10428209;28;20252;-79
2022/05/06 20:44:49;;;;;;;20.67;15.30;;;;;14.80;101864.00;;;;10416460;28;20649;-79
2022/05/06 20:49:51;;;;;;;18.07;14.67;;;;;14.80;101871.00;;;;10426893;28;20198;-79
2022/05/06 20:54:54;;;;;;;18.53;14.93;;;;;14.70;101864.00;;;;10426115;28;20209;-80
2022/05/06 20:59:56;;;;;;;17.30;13.47;;;;;14.60;101864.00;;;;10425557;28;20244;-80
2022/05/06 21:04:59;;;;;;;19.20;13.43;;;;;14.50;101860.00;;;;10392740;28;20207;-78
2022/05/06 21:15:22;;;;;;;18.50;14.17;;;;;14.30;101870.00;;;;10368720;28;20705;-80
2022/05/06 21:20:24;;;;;;;16.40;14.60;;;;;14.20;101860.00;;;;10403414;28;20299;-79
2022/05/06 21:25:27;;;;;;;19.67;13.23;;;;;14.10;101862.00;;;;10405821;28;20197;-79
2022/05/06 21:30:29;;;;;;;17.60;14.30;;;;;14.10;101864.00;;;;10407193;28;20202;-79
2022/05/06 21:35:32;;;;;;;18.07;13.53;;;;;14.30;101861.00;;;;10407997;28;20187;-79
2022/05/06 21:40:36;;;;;;;16.83;14.97;;;;;14.40;101858.00;;;;10423935;28;20280;-79
2022/05/06 21:45:38;;;;;;;19.17;15.17;;;;;14.50;101850.00;;;;10441338;28;20229;-79
2022/05/06 21:50:40;;;;;;;20.77;15.33;;;;;14.40;101856.00;;;;10423510;28;20668;-79
2022/05/06 21:55:42;;;;;;;18.57;15.80;;;;;14.30;101849.00;;;;10408144;28;20202;-79
2022/05/06 22:00:45;;;;;;;18.57;15.57;;;;;14.10;101851.00;;;;10423315;28;20222;-79
2022/05/06 22:05:51;;;;;;;16.60;14.77;;;;;14.00;101835.00;;;;10410818;28;20218;-78
2022/05/06 22:10:53;;;;;;;19.70;15.10;;;;;13.90;101838.00;;;;10387957;28;20575;-79
2022/05/06 22:15:55;;;;;;;19.67;15.30;;;;;13.70;101845.00;;;;10406856;28;20202;-79
2022/05/06 22:20:57;;;;;;;20.30;16.17;;;;;13.60;101852.00;;;;10411169;28;20284;-80
2022/05/06 22:25:59;;;;;;;18.43;16.07;;;;;13.50;101848.00;;;;10421943;28;20653;-79
2022/05/06 22:31:01;;;;;;;16.23;14.50;;;;;13.40;101856.00;;;;10398964;28;20206;-79
2022/05/06 22:36:03;;;;;;;18.53;15.13;;;;;13.40;101853.00;;;;10403943;28;20194;-79
2022/05/06 22:46:25;;;;;;;17.27;15.40;;;;;13.30;101845.00;;;;10438234;28;20720;-79
2022/05/06 22:51:31;;;;;;;18.17;14.33;;;;;13.20;101844.00;;;;10377435;28;20302;-79
2022/05/06 22:56:33;;;;;;;18.07;14.10;;;;;13.20;101847.00;;;;10379067;28;20201;-79
2022/05/06 23:01:35;;;;;;;18.23;14.37;;;;;13.10;101841.00;;;;10379003;28;20219;-80
2022/05/06 23:06:37;;;;;;;18.80;14.90;;;;;13.10;101841.00;;;;10410964;28;20597;-79
2022/05/06 23:11:39;;;;;;;19.80;15.27;;;;;13.00;101838.00;;;;10400261;28;20267;-79
2022/05/06 23:16:41;;;;;;;19.63;15.73;;;;;13.10;101833.00;;;;10403742;28;20237;-80
2022/05/06 23:21:43;;;;;;;21.43;16.10;;;;;13.10;101838.00;;;;10391081;28;20248;-79
2022/05/06 23:26:45;;;;;;;18.63;16.63;;;;;13.10;101833.00;;;;10436443;28;20257;-79
2022/05/06 23:31:47;;;;;;;24.53;17.80;;;;;13.00;101832.00;;;;10383570;28;20210;-79
2022/05/06 23:42:11;;;;;;;26.33;20.57;;;;;12.90;101818.00;;;;10379354;28;20223;-79
2022/05/06 23:47:13;;;;;;;26.57;21.13;;;;;12.90;101829.00;;;;10423342;28;20264;-79
2022/05/06 23:52:15;;;;;;;25.20;21.13;;;;;12.90;101819.00;;;;10420391;28;20297;-79
2022/05/06 23:57:22;;;;;;;25.03;19.60;;;;;12.90;101823.00;;;;10404307;28;20228;-79
